Lindale, Texas
Current Conditions -  °F | °C
As of 8:40 AM on Thursday 29 Jan 2015 (Local Time) from KTYR Reporting Station
Broken Clouds Broken Clouds  
Wind Chill: 58°   Ceiling: 700
Heat Index: 58°   Visibility: 10mi
Dew Point: 54°   Wind: 7mph
Humidity: 87%   Direction: 250°WSW
Pressure: 30.19"   Gusts: NA
Location:  32.52°N, 95.41°W
Report Text: KTYR 291440Z 25006KT 10SM BKN007 14/12 A3019 RMK AO2 T01440122
Loading
Personal Weather Stations






























Interactive Weather Map New forecast layout! Learn more

10-Day Weather Forecast

Advertisements
Track Severe Weather on mobile